createdAt,value
2022-09-04T00:02:10.511Z,14.40
2022-09-04T00:05:22.924Z,14.30
2022-09-04T00:08:51.901Z,14.10
2022-09-04T00:12:09.632Z,13.90
2022-09-04T00:15:22.659Z,13.80
2022-09-04T00:18:55.960Z,13.90
2022-09-04T00:22:20.875Z,13.90
2022-09-04T00:25:41.588Z,14.10
2022-09-04T00:28:49.695Z,14.20
2022-09-04T00:32:09.448Z,13.90
2022-09-04T00:35:25.085Z,14.20
2022-09-04T00:38:54.008Z,14.60
2022-09-04T00:42:25.666Z,14.80
2022-09-04T00:45:41.892Z,14.90
2022-09-04T00:49:03.226Z,14.90
2022-09-04T00:52:37.524Z,14.60
2022-09-04T00:56:35.357Z,14.40
2022-09-04T01:00:12.888Z,14.30
2022-09-04T01:03:40.187Z,14.20
2022-09-04T01:07:24.286Z,14.10
2022-09-04T01:11:00.133Z,14.20
2022-09-04T01:14:34.607Z,14.40
2022-09-04T01:17:49.971Z,14.40
2022-09-04T01:21:43.141Z,14.30
2022-09-04T01:25:21.798Z,14.20
2022-09-04T01:29:02.662Z,14.10
2022-09-04T01:32:18.745Z,13.90
2022-09-04T01:35:35.016Z,13.80
2022-09-04T01:38:51.493Z,13.80
2022-09-04T01:42:34.820Z,13.80
2022-09-04T01:45:53.119Z,13.90
2022-09-04T01:49:09.799Z,13.80
2022-09-04T01:52:53.774Z,13.70
2022-09-04T01:56:21.333Z,13.50
2022-09-04T02:00:10.623Z,13.40
2022-09-04T02:03:25.570Z,13.30
2022-09-04T02:07:05.377Z,13.20
2022-09-04T02:10:42.833Z,13.40
2022-09-04T02:14:08.851Z,13.50
2022-09-04T02:17:18.568Z,13.30
2022-09-04T02:20:30.626Z,13.50
2022-09-04T02:23:52.231Z,13.60
2022-09-04T02:27:36.322Z,13.40
2022-09-04T02:30:51.063Z,13.30
2022-09-04T02:34:08.935Z,13.30
2022-09-04T02:38:05.815Z,13.30
2022-09-04T02:41:19.804Z,13.20
2022-09-04T02:45:15.998Z,13.20
2022-09-04T02:48:41.280Z,13.20
2022-09-04T02:52:27.125Z,13.10
2022-09-04T02:56:08.631Z,13.00
2022-09-04T02:59:47.501Z,13.10
2022-09-04T03:03:15.123Z,13.20
2022-09-04T03:06:49.038Z,13.10
2022-09-04T03:10:26.902Z,13.00
2022-09-04T03:13:59.435Z,13.00
2022-09-04T03:17:17.301Z,13.10
2022-09-04T03:20:25.761Z,13.30
2022-09-04T03:24:01.005Z,13.70
2022-09-04T03:27:10.786Z,14.00
2022-09-04T03:30:14.687Z,14.10
2022-09-04T03:33:43.305Z,14.10
2022-09-04T03:37:26.006Z,14.20
2022-09-04T03:40:37.745Z,14.20
2022-09-04T03:44:23.250Z,14.20
2022-09-04T03:48:12.000Z,14.20
2022-09-04T03:52:08.566Z,14.10
2022-09-04T03:55:56.434Z,14.20
2022-09-04T03:59:32.025Z,14.20
2022-09-04T04:02:57.616Z,14.00
2022-09-04T04:06:40.631Z,14.00
2022-09-04T04:10:09.578Z,13.90
2022-09-04T04:13:48.755Z,13.70
2022-09-04T04:17:31.626Z,13.80
2022-09-04T04:21:40.131Z,13.70
2022-09-04T04:25:08.421Z,13.60
2022-09-04T04:29:00.054Z,13.50
2022-09-04T04:32:32.807Z,13.50
2022-09-04T04:36:15.570Z,13.50
2022-09-04T04:39:36.343Z,13.60
2022-09-04T04:42:55.231Z,13.70
2022-09-04T04:46:47.720Z,13.80
2022-09-04T04:50:12.072Z,13.70
2022-09-04T04:53:34.665Z,13.60
2022-09-04T04:57:09.860Z,13.50
2022-09-04T05:00:27.341Z,13.40
2022-09-04T05:04:11.847Z,13.40
2022-09-04T05:07:53.879Z,13.40
2022-09-04T05:11:17.333Z,13.50
2022-09-04T05:14:52.863Z,13.60
2022-09-04T05:18:01.978Z,13.60
2022-09-04T05:21:37.089Z,13.70
2022-09-04T05:24:59.787Z,13.80
2022-09-04T05:28:44.934Z,13.90
2022-09-04T05:31:59.124Z,14.00
2022-09-04T05:35:25.316Z,14.10
2022-09-04T05:39:05.783Z,14.20
2022-09-04T05:42:52.531Z,14.30
2022-09-04T05:46:07.664Z,14.30
2022-09-04T05:49:26.589Z,14.40
2022-09-04T05:52:36.144Z,14.50
2022-09-04T05:55:52.064Z,14.60
2022-09-04T05:59:22.480Z,14.60
2022-09-04T06:02:50.513Z,14.70
2022-09-04T06:06:48.083Z,14.80
2022-09-04T06:10:24.317Z,14.70
2022-09-04T06:14:10.113Z,14.90
2022-09-04T06:17:29.844Z,14.90
2022-09-04T06:20:52.550Z,14.80
2022-09-04T06:24:57.101Z,14.80
2022-09-04T06:28:28.760Z,15.00
2022-09-04T06:31:47.457Z,15.40
2022-09-04T06:35:37.068Z,15.40
2022-09-04T06:39:10.947Z,15.50
2022-09-04T06:42:52.642Z,15.70
2022-09-04T06:46:24.106Z,15.80
2022-09-04T06:49:36.913Z,16.10
2022-09-04T06:53:04.441Z,16.60
2022-09-04T06:56:41.887Z,16.90
2022-09-04T07:00:15.247Z,17.20
2022-09-04T07:04:06.335Z,17.20
2022-09-04T07:07:53.762Z,17.10
2022-09-04T07:11:19.059Z,17.60
2022-09-04T07:14:45.356Z,18.10
2022-09-04T07:18:47.361Z,17.80
2022-09-04T07:22:45.596Z,17.80
2022-09-04T07:26:31.878Z,17.80
2022-09-04T07:29:44.125Z,18.20
2022-09-04T07:32:54.480Z,18.70
2022-09-04T07:36:08.315Z,19.20
2022-09-04T07:39:37.569Z,19.50
2022-09-04T07:42:52.427Z,19.90
2022-09-04T07:46:22.504Z,19.90
2022-09-04T07:49:42.627Z,19.90
2022-09-04T07:53:11.395Z,20.20
2022-09-04T07:57:15.142Z,20.40
2022-09-04T08:00:21.211Z,20.30
2022-09-04T08:03:31.907Z,20.00
2022-09-04T08:07:02.038Z,20.20
2022-09-04T08:10:27.906Z,20.40
2022-09-04T08:14:15.323Z,20.30
2022-09-04T08:17:47.792Z,20.20
2022-09-04T08:21:17.633Z,20.10
2022-09-04T08:24:55.781Z,20.30
2022-09-04T08:28:17.628Z,20.50
2022-09-04T08:31:46.914Z,20.60
2022-09-04T08:35:05.856Z,20.40
2022-09-04T08:38:43.742Z,20.30
2022-09-04T08:42:11.734Z,21.00
2022-09-04T08:45:57.891Z,20.90
2022-09-04T08:49:38.884Z,20.70
2022-09-04T08:53:13.909Z,20.30
2022-09-04T08:56:57.506Z,20.50
2022-09-04T09:00:13.164Z,20.50
2022-09-04T09:04:02.488Z,20.80
2022-09-04T09:07:56.070Z,21.30
2022-09-04T09:11:19.333Z,22.20
2022-09-04T09:15:14.213Z,22.60
2022-09-04T09:18:55.107Z,22.80
2022-09-04T09:22:29.213Z,22.50
2022-09-04T09:25:49.083Z,23.70
2022-09-04T09:29:34.260Z,23.90
2022-09-04T09:32:56.668Z,22.90
2022-09-04T09:36:22.671Z,21.90
2022-09-04T09:39:51.960Z,23.50
2022-09-04T09:43:02.105Z,23.80
2022-09-04T09:46:51.914Z,23.80
2022-09-04T09:50:32.833Z,24.20
2022-09-04T09:54:05.963Z,24.20
2022-09-04T09:57:40.856Z,25.00
2022-09-04T10:01:09.299Z,24.50
2022-09-04T10:05:13.842Z,24.40
2022-09-04T10:09:11.022Z,22.90
2022-09-04T10:12:41.904Z,25.00
2022-09-04T10:16:10.626Z,23.80
2022-09-04T10:19:43.346Z,24.50
2022-09-04T10:23:14.876Z,24.50
2022-09-04T10:26:35.292Z,24.20
2022-09-04T10:30:24.609Z,26.40
2022-09-04T10:34:04.886Z,27.50
2022-09-04T10:37:43.743Z,27.50
2022-09-04T10:40:55.336Z,26.60
2022-09-04T10:44:39.291Z,26.00
2022-09-04T10:48:28.577Z,28.30
2022-09-04T10:51:49.642Z,29.80
2022-09-04T10:55:11.831Z,29.70
2022-09-04T10:58:45.178Z,29.80
2022-09-04T11:02:01.308Z,30.20
2022-09-04T11:05:41.475Z,31.30
2022-09-04T11:09:19.950Z,27.00
2022-09-04T11:12:56.117Z,26.40
2022-09-04T11:16:38.831Z,29.70
2022-09-04T11:19:54.649Z,31.60
2022-09-04T11:23:32.312Z,32.20
2022-09-04T11:26:50.188Z,32.60
2022-09-04T11:30:20.657Z,32.60
2022-09-04T11:33:55.543Z,32.70
2022-09-04T11:38:01.103Z,32.50
2022-09-04T11:41:38.189Z,32.90
2022-09-04T11:45:16.913Z,33.10
2022-09-04T11:49:09.450Z,33.20
2022-09-04T11:52:16.977Z,32.50
2022-09-04T11:59:05.167Z,33.60
2022-09-04T12:02:30.082Z,33.70
2022-09-04T12:06:09.584Z,33.10
2022-09-04T12:09:51.066Z,33.70
2022-09-04T12:13:19.486Z,33.50
2022-09-04T12:17:08.571Z,33.20
2022-09-04T12:20:49.649Z,33.70
2022-09-04T12:24:21.291Z,33.70
2022-09-04T12:28:18.893Z,33.90
2022-09-04T12:32:17.811Z,34.00
2022-09-04T12:35:33.893Z,34.50
2022-09-04T12:39:03.361Z,34.40
2022-09-04T12:42:18.492Z,34.20
2022-09-04T12:45:54.084Z,34.00
2022-09-04T12:49:26.318Z,34.60
2022-09-04T12:53:05.256Z,34.70
2022-09-04T12:56:22.938Z,34.40
2022-09-04T13:00:12.286Z,35.50
2022-09-04T13:03:59.941Z,34.10
2022-09-04T13:07:41.089Z,34.00
2022-09-04T13:11:00.274Z,34.20
2022-09-04T13:14:34.611Z,34.00
2022-09-04T13:17:59.400Z,34.60
2022-09-04T13:21:50.073Z,34.20
2022-09-04T13:25:42.362Z,34.20
2022-09-04T13:29:17.138Z,34.40
2022-09-04T13:32:34.986Z,34.70
2022-09-04T13:36:03.565Z,34.80
2022-09-04T13:39:22.018Z,35.20
2022-09-04T13:43:08.712Z,35.40
2022-09-04T13:46:24.755Z,35.10
2022-09-04T13:49:37.990Z,35.00
2022-09-04T13:53:19.682Z,34.70
2022-09-04T13:56:32.786Z,34.80
2022-09-04T13:59:35.487Z,35.80
2022-09-04T14:02:39.369Z,35.80
2022-09-04T14:05:41.047Z,35.70
2022-09-04T14:08:46.210Z,35.80
2022-09-04T14:12:18.703Z,35.80
2022-09-04T14:15:28.624Z,35.70
2022-09-04T14:19:06.882Z,36.40
2022-09-04T14:23:02.801Z,36.20
2022-09-04T14:27:06.458Z,35.90
2022-09-04T14:30:18.090Z,36.40
2022-09-04T14:33:43.239Z,35.70
2022-09-04T14:37:11.184Z,35.90
2022-09-04T14:40:23.453Z,35.80
2022-09-04T14:44:03.463Z,35.90
2022-09-04T14:47:26.225Z,36.40
2022-09-04T14:50:31.154Z,36.40
2022-09-04T14:53:36.065Z,35.90
2022-09-04T14:56:48.154Z,36.40
2022-09-04T15:00:17.495Z,35.40
2022-09-04T15:03:31.334Z,36.20
2022-09-04T15:07:09.859Z,36.50
2022-09-04T15:10:31.668Z,36.30
2022-09-04T15:14:04.996Z,36.10
2022-09-04T15:17:30.404Z,36.30
2022-09-04T15:20:36.735Z,36.20
2022-09-04T15:24:00.794Z,36.50
2022-09-04T15:27:30.055Z,36.40
2022-09-04T15:30:45.309Z,36.00
2022-09-04T15:33:49.323Z,36.20
2022-09-04T15:36:51.015Z,35.80
2022-09-04T15:40:13.551Z,35.20
2022-09-04T15:43:22.866Z,35.20
2022-09-04T15:47:00.628Z,35.70
2022-09-04T15:50:27.888Z,37.10
2022-09-04T15:53:39.621Z,37.00
2022-09-04T15:57:19.319Z,37.30
2022-09-04T16:00:27.500Z,37.60
2022-09-04T16:03:43.338Z,37.20
2022-09-04T16:06:54.961Z,36.80
2022-09-04T16:10:09.082Z,33.70
2022-09-04T16:13:36.604Z,32.10
2022-09-04T16:16:49.622Z,30.30
2022-09-04T16:20:21.121Z,29.50
2022-09-04T16:23:39.013Z,29.50
2022-09-04T16:26:40.549Z,29.70
2022-09-04T16:29:51.301Z,29.40
2022-09-04T16:32:52.631Z,29.80
2022-09-04T16:36:02.161Z,29.30
2022-09-04T16:39:14.455Z,28.90
2022-09-04T16:42:31.475Z,28.80
2022-09-04T16:45:50.210Z,29.00
2022-09-04T16:49:01.003Z,28.80
2022-09-04T16:52:20.145Z,28.70
2022-09-04T16:55:31.462Z,28.50
2022-09-04T16:58:54.822Z,28.00
2022-09-04T17:02:43.197Z,27.50
2022-09-04T17:05:58.544Z,27.10
2022-09-04T17:09:26.958Z,26.90
2022-09-04T17:12:55.314Z,26.50
2022-09-04T17:16:10.566Z,26.10
2022-09-04T17:19:15.414Z,25.80
2022-09-04T17:26:36.029Z,25.30
2022-09-04T17:29:13.398Z,25.00
2022-09-04T17:29:49.382Z,24.90
2022-09-04T17:39:47.774Z,24.70
2022-09-04T17:40:55.609Z,24.60
2022-09-04T17:41:31.035Z,24.50
2022-09-04T17:44:25.570Z,24.10
2022-09-04T17:47:44.228Z,23.60
2022-09-04T17:51:07.645Z,23.20
2022-09-04T17:54:15.104Z,22.90
2022-09-04T17:57:53.566Z,22.40
2022-09-04T18:01:43.301Z,22.20
2022-09-04T18:05:08.784Z,22.00
2022-09-04T18:08:25.271Z,21.80
2022-09-04T18:11:33.325Z,21.60
2022-09-04T18:15:32.656Z,21.40
2022-09-04T18:18:36.033Z,21.00
2022-09-04T18:21:59.226Z,21.00
2022-09-04T18:25:51.078Z,20.90
2022-09-04T18:30:23.430Z,20.70
2022-09-04T18:37:17.020Z,20.60
2022-09-04T18:37:25.318Z,20.50
2022-09-04T18:40:16.090Z,20.40
2022-09-04T18:50:25.801Z,20.40
2022-09-04T18:50:44.950Z,20.30
2022-09-04T18:51:30.689Z,20.00
2022-09-04T18:54:44.324Z,19.80
2022-09-04T18:58:12.604Z,19.80
2022-09-04T19:01:44.016Z,19.60
2022-09-04T19:05:20.174Z,19.50
2022-09-04T19:08:32.007Z,19.40
2022-09-04T19:11:43.183Z,19.50
2022-09-04T19:14:45.314Z,19.50
2022-09-04T19:17:55.590Z,19.50
2022-09-04T19:21:09.997Z,19.50
2022-09-04T19:24:34.827Z,19.40
2022-09-04T19:27:55.860Z,19.30
2022-09-04T19:31:15.497Z,19.10
2022-09-04T19:34:47.200Z,19.20
2022-09-04T19:41:42.960Z,19.10
2022-09-04T19:46:03.966Z,18.70
2022-09-04T19:46:19.314Z,18.80
2022-09-04T19:49:33.424Z,18.80
2022-09-04T19:53:32.376Z,18.70
2022-09-04T19:56:27.789Z,18.30
2022-09-04T19:59:45.610Z,18.40
2022-09-04T20:03:07.615Z,18.50
2022-09-04T20:06:24.526Z,18.50
2022-09-04T20:09:44.703Z,18.20
2022-09-04T20:12:57.518Z,18.10
2022-09-04T20:16:16.301Z,18.00
2022-09-04T20:19:42.448Z,18.00
2022-09-04T20:23:34.003Z,17.70
2022-09-04T20:26:55.307Z,17.70
2022-09-04T20:30:12.844Z,17.80
2022-09-04T20:33:22.101Z,17.80
2022-09-04T20:36:33.796Z,17.90
2022-09-04T20:40:06.868Z,17.80
2022-09-04T20:43:47.711Z,17.90
2022-09-04T20:52:42.470Z,17.90
2022-09-04T20:52:58.239Z,17.90
2022-09-04T20:54:50.986Z,18.00
2022-09-04T21:02:17.829Z,17.90
2022-09-04T21:03:08.666Z,17.90
2022-09-04T21:06:30.026Z,17.70
2022-09-04T21:09:54.966Z,17.70
2022-09-04T21:13:35.735Z,17.60
2022-09-04T21:17:02.170Z,17.70
2022-09-04T21:20:20.931Z,17.70
2022-09-04T21:23:46.495Z,17.70
2022-09-04T21:27:24.652Z,17.80
2022-09-04T21:31:19.540Z,17.70
2022-09-04T21:34:58.812Z,17.40
2022-09-04T21:38:16.137Z,17.30
2022-09-04T21:41:55.516Z,17.30
2022-09-04T21:45:18.582Z,17.40
2022-09-04T21:48:55.786Z,17.30
2022-09-04T21:52:12.560Z,17.20
2022-09-04T21:59:09.923Z,17.20
2022-09-04T22:02:39.906Z,17.40
2022-09-04T22:03:37.012Z,17.40
2022-09-04T22:09:00.223Z,17.50
2022-09-04T22:13:33.557Z,17.50
2022-09-04T22:14:17.681Z,17.40
2022-09-04T22:17:46.670Z,17.20
2022-09-04T22:21:27.426Z,17.20
2022-09-04T22:25:20.961Z,17.00
2022-09-04T22:29:01.379Z,17.10
2022-09-04T22:32:20.413Z,16.90
2022-09-04T22:35:36.552Z,17.00
2022-09-04T22:39:38.772Z,16.90
2022-09-04T22:43:04.342Z,16.90
2022-09-04T22:46:36.257Z,16.80
2022-09-04T22:50:19.067Z,16.70
2022-09-04T22:54:12.588Z,16.60
2022-09-04T22:57:35.903Z,16.60
2022-09-04T23:01:33.343Z,16.50
2022-09-04T23:05:01.347Z,16.50
2022-09-04T23:13:47.827Z,16.60
2022-09-04T23:13:58.273Z,16.50
2022-09-04T23:16:14.996Z,16.40
2022-09-04T23:26:31.252Z,16.30
2022-09-04T23:26:43.574Z,16.30
2022-09-04T23:28:28.256Z,16.10
2022-09-04T23:32:16.329Z,16.20
2022-09-04T23:35:57.863Z,16.10
2022-09-04T23:39:22.066Z,16.20
2022-09-04T23:42:47.518Z,16.10
2022-09-04T23:46:23.783Z,16.10
2022-09-04T23:49:46.107Z,15.80
2022-09-04T23:53:33.002Z,15.70
2022-09-04T23:56:53.476Z,15.80
